^^
Datos históricos de la estación: Murcia-Puente Tocinos
Diario Informe para Febrero 17, 2019 Unidades:  Métrico    Ingés   Ambas
Diario Semanal Mensual Anual
  Máxima: Mínima: Promedio:
Temperatura: 19.9 °C 14.9 °C 16.6 °C
Punto de rocio: 13.3 °C 9.8 °C 11.9 °C
Humedad: 88% 53.5% 75%
Velocidad viento: 23.7km/h 2.9km/h 11.1km/h
Racha viento: 42.6km/h - -
Viento- - NE
Presión: 1018.1 hPa 1011.7 hPa -
Precipitación: 0.0 mm    
 
 
Tabla de datos para Febrero 17, 2019
Hora Temperatura Punto de rocio Presión Viento Velocidad viento Racha viento Humedad Intensidad lluvia(por hora) Nubes
00:04 15.4 °C 12.9 °C 1018.1 hPa NE 8.4 km/h 14.8 km/h 85% 0.0 mm
00:09 15.4 °C 12.9 °C 1018.1 hPa NE 8.2 km/h 14.5 km/h 85% 0.0 mm
00:14 15.4 °C 12.9 °C 1018.1 hPa NE 7.6 km/h 13 km/h 85% 0.0 mm
00:19 15.5 °C 13 °C 1018.1 hPa NE 7.1 km/h 12.9 km/h 85% 0.0 mm
00:24 15.5 °C 13 °C 1018.0 hPa NE 6.5 km/h 11.3 km/h 85% 0.0 mm
00:29 15.5 °C 13 °C 1018.0 hPa NE 6.7 km/h 11.3 km/h 85% 0.0 mm
00:34 15.5 °C 13 °C 1018.1 hPa NNE 6.9 km/h 11.9 km/h 85% 0.0 mm
00:39 15.5 °C 13.1 °C 1018.1 hPa NE 6.9 km/h 11.3 km/h 85.8% 0.0 mm
00:44 15.5 °C 13.2 °C 1018.1 hPa NNE 6.9 km/h 13 km/h 86% 0.0 mm
00:49 15.5 °C 13.1 °C 1018.1 hPa NE 6.9 km/h 12.9 km/h 86% 0.0 mm
00:54 15.4 °C 13.1 °C 1018.0 hPa NE 6.9 km/h 11.9 km/h 86.2% 0.0 mm
00:59 15.4 °C 13.1 °C 1018.0 hPa NE 6.9 km/h 16.1 km/h 86% 0.0 mm
01:04 15.4 °C 13.2 °C 1018.0 hPa NE 6.9 km/h 16.7 km/h 86.7% 0.0 mm
01:09 15.3 °C 13.2 °C 1017.9 hPa NE 7.6 km/h 16.1 km/h 87% 0.0 mm
01:14 15.3 °C 13.2 °C 1017.9 hPa NE 8.7 km/h 14.5 km/h 87% 0.0 mm
01:19 15.3 °C 13.2 °C 1017.9 hPa NNE 8.3 km/h 16.7 km/h 87% 0.0 mm
01:24 15.3 °C 13.2 °C 1017.9 hPa NNE 7.6 km/h 16.1 km/h 87% 0.0 mm
01:29 15.3 °C 13.2 °C 1017.9 hPa NNE 8 km/h 16.4 km/h 87% 0.0 mm
01:34 15.2 °C 13.1 °C 1017.9 hPa NNE 8.7 km/h 16.7 km/h 87.5% 0.0 mm
01:39 15.2 °C 13.2 °C 1017.7 hPa NE 9 km/h 16.7 km/h 88% 0.0 mm
01:44 15.2 °C 13.2 °C 1017.7 hPa NE 9.5 km/h 14.5 km/h 88% 0.0 mm
01:49 15.2 °C 13.2 °C 1017.7 hPa NE 9 km/h 13 km/h 88% 0.0 mm
01:54 15.2 °C 13.2 °C 1017.6 hPa NE 8.4 km/h 15.6 km/h 88% 0.0 mm
01:59 15.2 °C 13.2 °C 1017.6 hPa NE 8.5 km/h 16.1 km/h 88% 0.0 mm
02:04 15.2 °C 13.2 °C 1017.6 hPa NE 8.7 km/h 16.7 km/h 88% 0.0 mm
02:09 15.2 °C 13.2 °C 1017.6 hPa NE 8.7 km/h 16.1 km/h 88% 0.0 mm
02:14 15.2 °C 13.2 °C 1017.6 hPa NE 8.7 km/h 15.6 km/h 88% 0.0 mm
02:19 15.2 °C 13.2 °C 1017.6 hPa NE 9 km/h 16.1 km/h 88% 0.0 mm
02:24 15.2 °C 13.2 °C 1017.3 hPa NE 9.5 km/h 14.5 km/h 88% 0.0 mm
02:29 15.2 °C 13.2 °C 1017.3 hPa NE 9 km/h 15.6 km/h 88% 0.0 mm
02:34 15.2 °C 13.2 °C 1017.4 hPa NE 8.4 km/h 16.1 km/h 88% 0.0 mm
02:39 15.2 °C 13.2 °C 1017.4 hPa NE 8.4 km/h 18.5 km/h 88% 0.0 mm
02:44 15.2 °C 13.2 °C 1017.4 hPa NE 8.4 km/h 19.3 km/h 88% 0.0 mm
02:49 15.2 °C 13.2 °C 1017.4 hPa NE 8.5 km/h 15.6 km/h 88% 0.0 mm
02:54 15.2 °C 13.2 °C 1017.4 hPa NE 8.7 km/h 16.1 km/h 88% 0.0 mm
02:59 15.3 °C 13.3 °C 1017.4 hPa NE 8.2 km/h 13.7 km/h 88% 0.0 mm
03:04 15.3 °C 13.3 °C 1017.4 hPa NE 7.6 km/h 14.5 km/h 88% 0.0 mm
03:09 15.3 °C 13.3 °C 1017.3 hPa NE 7.3 km/h 12.9 km/h 88% 0.0 mm
03:14 15.3 °C 13.3 °C 1017.3 hPa NE 6.9 km/h 14 km/h 87.6% 0.0 mm
03:19 15.2 °C 13.1 °C 1017.3 hPa NE 7.5 km/h 14.8 km/h 87% 0.0 mm
03:24 15.2 °C 13.1 °C 1017.1 hPa NE 8.4 km/h 14.8 km/h 87% 0.0 mm
03:29 15.2 °C 13.1 °C 1017.1 hPa NE 8.5 km/h 14.8 km/h 87% 0.0 mm
03:34 15.2 °C 13.1 °C 1017.1 hPa NE 8.7 km/h 12.9 km/h 87% 0.0 mm
03:39 15.2 °C 13.1 °C 1017.0 hPa NNE 8 km/h 14.8 km/h 87% 0.0 mm
03:44 15.2 °C 13.1 °C 1017.0 hPa NE 6.9 km/h 14.5 km/h 87% 0.0 mm
03:49 15.2 °C 13.1 °C 1017.0 hPa NE 7.6 km/h 18.5 km/h 87% 0.0 mm
03:54 15.2 °C 13.1 °C 1017.0 hPa NE 8.7 km/h 19.3 km/h 87% 0.0 mm
03:59 15.2 °C 13.1 °C 1017.0 hPa NE 9.5 km/h 16.7 km/h 87% 0.0 mm
04:04 15.2 °C 13.1 °C 1017.0 hPa NE 10.3 km/h 16.1 km/h 87% 0.0 mm
04:09 15.2 °C 13.1 °C 1016.8 hPa NE 9.6 km/h 14.8 km/h 87% 0.0 mm
04:14 15.2 °C 13 °C 1016.8 hPa NE 8.4 km/h 13.7 km/h 87% 0.0 mm
04:19 15.1 °C 12.9 °C 1016.8 hPa NE 8.4 km/h 14.8 km/h 86.8% 0.0 mm
04:24 15.1 °C 12.8 °C 1016.7 hPa NE 8.4 km/h 14.8 km/h 86% 0.0 mm
04:29 15.1 °C 12.6 °C 1016.7 hPa NE 8.5 km/h 14.5 km/h 85.1% 0.0 mm
04:34 15.1 °C 12.6 °C 1016.8 hPa NE 8.7 km/h 13.7 km/h 84.8% 0.0 mm
04:39 15.2 °C 12.5 °C 1016.8 hPa NE 8.3 km/h 14.5 km/h 84% 0.0 mm
04:44 15.2 °C 12.5 °C 1016.8 hPa NE 7.6 km/h 14.8 km/h 84% 0.0 mm
04:49 15.2 °C 12.5 °C 1016.8 hPa NE 7.3 km/h 14.5 km/h 84% 0.0 mm
04:54 15.2 °C 12.4 °C 1016.7 hPa NE 6.9 km/h 15.6 km/h 83.6% 0.0 mm
04:59 15.2 °C 12.5 °C 1016.7 hPa NE 8.2 km/h 16.1 km/h 84% 0.0 mm
05:04 15.2 °C 12.5 °C 1016.7 hPa NE 9.5 km/h 15.6 km/h 84% 0.0 mm
05:09 15.2 °C 12.4 °C 1016.6 hPa NE 9.1 km/h 16.1 km/h 83.7% 0.0 mm
05:14 15.2 °C 12.3 °C 1016.6 hPa NE 8.4 km/h 16.7 km/h 83.2% 0.0 mm
05:19 15.1 °C 12.4 °C 1016.6 hPa NE 8.8 km/h 17.2 km/h 83.9% 0.0 mm
05:24 15.1 °C 12.3 °C 1016.6 hPa NE 9.5 km/h 17.7 km/h 83.7% 0.0 mm
05:29 15.1 °C 12.3 °C 1016.6 hPa NE 9.2 km/h 16.1 km/h 83.4% 0.0 mm
05:34 15.1 °C 12.2 °C 1016.6 hPa NE 8.7 km/h 16.1 km/h 83% 0.0 mm
05:39 15.1 °C 12.2 °C 1016.5 hPa NE 8.7 km/h 16.1 km/h 83% 0.0 mm
05:44 15.1 °C 12.2 °C 1016.5 hPa NE 8.7 km/h 13.7 km/h 83% 0.0 mm
05:49 15.1 °C 12.2 °C 1016.5 hPa NE 8.6 km/h 14.5 km/h 83% 0.0 mm
05:54 15.1 °C 12.2 °C 1016.4 hPa NE 8.4 km/h 14.5 km/h 83% 0.0 mm
05:59 15.1 °C 12.3 °C 1016.4 hPa NE 8 km/h 13.7 km/h 83.5% 0.0 mm
06:04 15.1 °C 12.4 °C 1016.4 hPa NE 7.6 km/h 14.5 km/h 84% 0.0 mm
06:09 15 °C 12.4 °C 1016.3 hPa NE 7.9 km/h 13 km/h 84% 0.0 mm
06:14 15 °C 12.3 °C 1016.3 hPa NE 8.4 km/h 13 km/h 84% 0.0 mm
06:19 15 °C 12.3 °C 1016.3 hPa NE 7.8 km/h 12.9 km/h 84% 0.0 mm
06:24 15 °C 12.3 °C 1016.3 hPa NE 6.9 km/h 11.3 km/h 84% 0.0 mm
06:29 14.9 °C 12.3 °C 1016.3 hPa NE 6.7 km/h 11.3 km/h 84% 0.0 mm
06:34 15 °C 12.3 °C 1016.3 hPa NE 6.5 km/h 9.7 km/h 84% 0.0 mm
06:39 15 °C 12.3 °C 1016.2 hPa NNE 5.7 km/h 9.3 km/h 84% 0.0 mm
06:44 14.9 °C 12.3 °C 1016.2 hPa NNE 4.7 km/h 10 km/h 84% 0.0 mm
06:49 14.9 °C 12.2 °C 1016.3 hPa NE 5.3 km/h 10 km/h 84% 0.0 mm
06:54 14.9 °C 12.2 °C 1016.3 hPa NE 6.5 km/h 9.7 km/h 84% 0.0 mm
06:59 14.9 °C 12.2 °C 1016.3 hPa NE 5.6 km/h 9.5 km/h 84% 0.0 mm
07:04 14.9 °C 12.2 °C 1016.3 hPa NNE 4.6 km/h 10 km/h 84% 0.0 mm
07:09 14.9 °C 12.2 °C 1016.3 hPa NE 4.8 km/h 9.7 km/h 83.8% 0.0 mm
07:14 14.9 °C 12.1 °C 1016.3 hPa NE 5 km/h 10 km/h 83% 0.0 mm
07:19 14.9 °C 12.1 °C 1016.4 hPa NE 5.6 km/h 10 km/h 83% 0.0 mm
07:24 14.9 °C 12.1 °C 1016.4 hPa NE 6.5 km/h 10 km/h 83% 0.0 mm
07:29 15 °C 12.1 °C 1016.4 hPa NNE 6.2 km/h 10 km/h 83% 0.0 mm
07:34 15 °C 12.1 °C 1016.6 hPa NE 5.8 km/h 9.7 km/h 83% 0.0 mm
07:39 15 °C 12.1 °C 1016.6 hPa NE 5.4 km/h 9.7 km/h 83% 0.0 mm
07:44 15 °C 12.1 °C 1016.6 hPa NNE 5 km/h 10 km/h 83% 0.0 mm
07:49 15 °C 12.1 °C 1016.6 hPa NNE 4.9 km/h 9.7 km/h 83% 0.0 mm
07:54 15.1 °C 12.2 °C 1016.6 hPa NNE 4.7 km/h 8 km/h 83% 0.0 mm
07:59 15.1 °C 12.2 °C 1016.6 hPa NNE 4.3 km/h 9.3 km/h 83% 0.0 mm
08:04 15.1 °C 12.2 °C 1016.6 hPa NNE 3.9 km/h 10.3 km/h 82.9% 0.0 mm
08:09 15.2 °C 12.1 °C 1016.6 hPa NNE 4.6 km/h 11.3 km/h 82% 0.0 mm
08:14 15.2 °C 12.2 °C 1016.6 hPa NNE 5.8 km/h 11.3 km/h 82% 0.0 mm
08:19 15.2 °C 12.3 °C 1016.7 hPa NE 5.8 km/h 9.7 km/h 82.5% 0.0 mm
08:24 15.2 °C 12.2 °C 1016.7 hPa NNE 5.8 km/h 8.4 km/h 82% 0.0 mm
08:29 15.3 °C 12.2 °C 1016.7 hPa NNE 5.3 km/h 8.4 km/h 82% 0.0 mm
08:34 15.3 °C 12.2 °C 1016.7 hPa NNE 4.6 km/h 11.1 km/h 82% 0.0 mm
08:39 15.2 °C 12.2 °C 1016.7 hPa NNE 5.5 km/h 11.3 km/h 82% 0.0 mm
08:44 15.3 °C 12.2 °C 1016.7 hPa NNE 6.9 km/h 11.3 km/h 82% 0.0 mm
08:49 15.4 °C 12.3 °C 1016.7 hPa NNE 6.9 km/h 11.3 km/h 81.7% 0.0 mm
08:54 15.7 °C 12.3 °C 1016.7 hPa NNE 6.9 km/h 13.7 km/h 80.4% 0.0 mm
08:59 15.8 °C 12.1 °C 1016.7 hPa NE 7.2 km/h 14.8 km/h 78.8% 0.0 mm
09:04 15.8 °C 12 °C 1016.7 hPa NE 7.6 km/h 14.5 km/h 78.3% 0.0 mm
09:09 15.8 °C 11.9 °C 1016.7 hPa NE 8.5 km/h 17.2 km/h 78% 0.0 mm
09:14 15.9 °C 12 °C 1016.7 hPa NE 10 km/h 17.7 km/h 77.7% 0.0 mm
09:19 16 °C 12 °C 1016.7 hPa NE 9 km/h 13.7 km/h 77% 0.0 mm
09:24 16.2 °C 11.7 °C 1016.6 hPa NE 7.6 km/h 20.4 km/h 75% 0.0 mm
09:29 16.2 °C 11.5 °C 1016.6 hPa NE 8.5 km/h 22.2 km/h 74% 0.0 mm
09:34 16.2 °C 11.5 °C 1016.6 hPa NNE 10 km/h 22.5 km/h 73.7% 0.0 mm
09:39 16.2 °C 11.6 °C 1016.5 hPa ENE 10.4 km/h 22.5 km/h 73.9% 0.0 mm
09:44 16.3 °C 11.5 °C 1016.5 hPa NE 11.1 km/h 24.1 km/h 73.2% 0.0 mm
09:49 16.3 °C 11.6 °C 1016.5 hPa NE 11.1 km/h 24.1 km/h 73.3% 0.0 mm
09:54 16.5 °C 11.7 °C 1016.4 hPa NE 11.1 km/h 16.4 km/h 73% 0.0 mm
09:59 16.7 °C 11.6 °C 1016.4 hPa ENE 9.9 km/h 17.2 km/h 72.1% 0.0 mm
10:04 16.6 °C 11.6 °C 1016.5 hPa NE 8.7 km/h 17.7 km/h 72% 0.0 mm
10:09 16.5 °C 11.3 °C 1016.5 hPa NNE 8.6 km/h 19.8 km/h 71.1% 0.0 mm
10:14 16.4 °C 10.9 °C 1016.5 hPa NE 8.4 km/h 20.9 km/h 69.9% 0.0 mm
10:19 16.4 °C 10.7 °C 1016.5 hPa NE 10.2 km/h 22.2 km/h 69% 0.0 mm
10:24 16.4 °C 10.7 °C 1016.5 hPa NE 13 km/h 22.5 km/h 69% 0.0 mm
10:29 16.4 °C 10.7 °C 1016.5 hPa NE 13.4 km/h 24.5 km/h 69% 0.0 mm
10:34 16.4 °C 10.7 °C 1016.5 hPa NE 14 km/h 24.5 km/h 69% 0.0 mm
10:39 16.5 °C 10.9 °C 1016.4 hPa NE 13.2 km/h 24.1 km/h 69.2% 0.0 mm
10:44 16.8 °C 11 °C 1016.4 hPa NE 12.2 km/h 24.1 km/h 68.7% 0.0 mm
10:49 17 °C 10.9 °C 1016.4 hPa NE 12.2 km/h 24.1 km/h 67.3% 0.0 mm
10:54 16.8 °C 10.6 °C 1016.2 hPa NE 12.2 km/h 22.5 km/h 67% 0.0 mm
10:59 17 °C 10.9 °C 1016.2 hPa NE 11.2 km/h 20.9 km/h 67.6% 0.0 mm
11:04 17.1 °C 11.1 °C 1016.2 hPa NE 10 km/h 18.3 km/h 68% 0.0 mm
11:09 17 °C 11.1 °C 1016.1 hPa NE 10.4 km/h 20.4 km/h 67.8% 0.0 mm
11:14 17 °C 11 °C 1016.1 hPa ENE 11.1 km/h 20.9 km/h 67.6% 0.0 mm
11:19 17.1 °C 11 °C 1016.2 hPa NE 10.7 km/h 20.9 km/h 67.2% 0.0 mm
11:24 17.2 °C 10.8 °C 1016.2 hPa NE 10 km/h 20.9 km/h 66% 0.0 mm
11:29 17.3 °C 10.8 °C 1016.2 hPa NE 10 km/h 24.5 km/h 66% 0.0 mm
11:34 17.2 °C 10.9 °C 1016.2 hPa NE 10 km/h 24.1 km/h 66.4% 0.0 mm
11:39 17.2 °C 11 °C 1016.1 hPa NE 10.8 km/h 20.9 km/h 66.9% 0.0 mm
11:44 17.1 °C 10.9 °C 1016.1 hPa NE 11.9 km/h 20.9 km/h 67% 0.0 mm
11:49 17.2 °C 11.1 °C 1016.1 hPa NE 12 km/h 20.9 km/h 67.7% 0.0 mm
11:54 17.3 °C 11.1 °C 1016.0 hPa NNE 12.2 km/h 26.2 km/h 67% 0.0 mm
11:59 17.3 °C 11.1 °C 1016.0 hPa NE 12.9 km/h 25.9 km/h 66.7% 0.0 mm
12:04 17.7 °C 11.2 °C 1016.0 hPa NE 13.7 km/h 19.3 km/h 65.6% 0.0 mm
12:09 18.1 °C 10.8 °C 1015.8 hPa ENE 13 km/h 25.9 km/h 62.7% 0.0 mm
12:14 18.3 °C 10.5 °C 1015.8 hPa Este 11.9 km/h 25.7 km/h 60.5% 0.0 mm
12:19 18.5 °C 10.6 °C 1015.8 hPa ENE 12.3 km/h 24.1 km/h 59.9% 0.0 mm
12:24 18.6 °C 10.5 °C 1015.8 hPa Este 13 km/h 22.2 km/h 59.1% 0.0 mm
12:29 18.7 °C 10.5 °C 1015.8 hPa Este 13.4 km/h 27.8 km/h 58.8% 0.0 mm
12:34 18.8 °C 10.3 °C 1015.8 hPa ENE 14 km/h 27.8 km/h 57.9% 0.0 mm
12:39 18.9 °C 10.4 °C 1015.7 hPa Este 14 km/h 27.4 km/h 58% 0.0 mm
12:44 18.9 °C 10.3 °C 1015.7 hPa ENE 14 km/h 25.1 km/h 57.5% 0.0 mm
12:49 18.8 °C 10.2 °C 1015.7 hPa ENE 14 km/h 35.2 km/h 57.5% 0.0 mm
12:54 18.8 °C 10.6 °C 1015.7 hPa ENE 14 km/h 35.4 km/h 58.7% 0.0 mm
12:59 19.1 °C 10.5 °C 1015.7 hPa ENE 13.6 km/h 25.9 km/h 57.5% 0.0 mm
13:04 19 °C 10.5 °C 1015.7 hPa NE 13 km/h 26.2 km/h 57.8% 0.0 mm
13:09 18.9 °C 10.3 °C 1015.4 hPa NE 13.7 km/h 25.9 km/h 57.3% 0.0 mm
13:14 18.8 °C 10.6 °C 1015.4 hPa ENE 14.8 km/h 26.2 km/h 58.9% 0.0 mm
13:19 19 °C 10.5 °C 1015.4 hPa Este 15.1 km/h 28.2 km/h 58.1% 0.0 mm
13:24 19 °C 10.6 °C 1015.3 hPa ENE 15.6 km/h 28.2 km/h 58.2% 0.0 mm
13:29 19.2 °C 10.4 °C 1015.3 hPa ENE 15.8 km/h 27.8 km/h 56.8% 0.0 mm
13:34 19.1 °C 10.2 °C 1015.3 hPa NE 16.1 km/h 29.8 km/h 56.5% 0.0 mm
13:39 19.1 °C 10.1 °C 1015.1 hPa NE 15.6 km/h 34.3 km/h 55.9% 0.0 mm
13:44 19.1 °C 10.6 °C 1015.1 hPa NE 14.8 km/h 33.8 km/h 57.5% 0.0 mm
13:49 19.1 °C 10.5 °C 1015.1 hPa NE 15.5 km/h 30.6 km/h 57.3% 0.0 mm
13:54 19.2 °C 10.2 °C 1014.8 hPa ENE 16.4 km/h 27.4 km/h 56% 0.0 mm
13:59 19.2 °C 10 °C 1014.8 hPa ENE 15.6 km/h 29.6 km/h 55.1% 0.0 mm
14:04 19.3 °C 9.8 °C 1014.8 hPa NE 14.8 km/h 34.3 km/h 54% 0.0 mm
14:09 19.3 °C 10 °C 1014.5 hPa NE 15.3 km/h 33.8 km/h 54.7% 0.0 mm
14:14 19.3 °C 10.1 °C 1014.5 hPa ENE 16.1 km/h 29 km/h 55% 0.0 mm
14:19 19.6 °C 10.1 °C 1014.5 hPa NE 15.3 km/h 27.8 km/h 54.2% 0.0 mm
14:24 19.6 °C 10.2 °C 1014.3 hPa NE 14 km/h 29.8 km/h 54.4% 0.0 mm
14:29 19.6 °C 10.1 °C 1014.3 hPa NE 15 km/h 33.3 km/h 54.3% 0.0 mm
14:34 19.4 °C 9.9 °C 1014.3 hPa ENE 16.4 km/h 33.8 km/h 54.3% 0.0 mm
14:39 19.6 °C 10 °C 1014.1 hPa ENE 16.3 km/h 30.6 km/h 54% 0.0 mm
14:44 19.8 °C 10 °C 1014.1 hPa NE 16.1 km/h 29 km/h 53.5% 0.0 mm
14:49 19.8 °C 10.1 °C 1014.1 hPa ENE 15.2 km/h 27.4 km/h 53.8% 0.0 mm
14:54 19.8 °C 10.3 °C 1014.0 hPa ENE 14 km/h 27.8 km/h 54% 0.0 mm
14:59 19.8 °C 10.2 °C 1014.0 hPa NE 14 km/h 27.8 km/h 53.9% 0.0 mm
15:04 19.9 °C 10.3 °C 1014.0 hPa ENE 14 km/h 29.8 km/h 54% 0.0 mm
15:09 19.8 °C 10.4 °C 1013.8 hPa ENE 14 km/h 30.6 km/h 54.5% 0.0 mm
15:14 19.9 °C 10.8 °C 1013.8 hPa NE 14 km/h 33.3 km/h 56% 0.0 mm
15:19 19.8 °C 10.8 °C 1013.8 hPa ENE 14.8 km/h 33.8 km/h 55.9% 0.0 mm
15:24 19.8 °C 10.7 °C 1013.8 hPa ENE 16.1 km/h 29.6 km/h 55.8% 0.0 mm
15:29 19.6 °C 10.7 °C 1013.8 hPa NE 16.5 km/h 29.8 km/h 56.3% 0.0 mm
15:34 19.7 °C 10.9 °C 1013.8 hPa ENE 17.2 km/h 30.6 km/h 57% 0.0 mm
15:39 19.9 °C 10.9 °C 1013.5 hPa NE 15.9 km/h 29 km/h 56.3% 0.0 mm
15:44 19.7 °C 11 °C 1013.5 hPa ENE 14 km/h 35.9 km/h 57.1% 0.0 mm
15:49 19.5 °C 11.2 °C 1013.5 hPa NE 15 km/h 37.8 km/h 58.7% 0.0 mm
15:54 19.4 °C 11.2 °C 1013.1 hPa ENE 16.4 km/h 37 km/h 59.1% 0.0 mm
15:59 19.4 °C 11.2 °C 1013.1 hPa NE 16.8 km/h 30.6 km/h 59.3% 0.0 mm
16:04 19.3 °C 11.5 °C 1013.2 hPa NE 17.2 km/h 30.6 km/h 60.8% 0.0 mm
16:09 19.3 °C 11.4 °C 1013.2 hPa NE 16.9 km/h 31.7 km/h 59.9% 0.0 mm
16:14 19.2 °C 11.6 °C 1013.2 hPa ENE 16.4 km/h 32.2 km/h 61.5% 0.0 mm
16:19 19.2 °C 11.6 °C 1013.2 hPa NE 15.8 km/h 30.6 km/h 61.4% 0.0 mm
16:24 19.2 °C 11.9 °C 1013.1 hPa NE 14.8 km/h 29 km/h 62.4% 0.0 mm
16:29 19.2 °C 11.7 °C 1013.1 hPa NE 14.8 km/h 28.2 km/h 62.1% 0.0 mm
16:34 19.1 °C 11.8 °C 1013.1 hPa NE 14.8 km/h 29.6 km/h 62.8% 0.0 mm
16:39 18.8 °C 11.9 °C 1013.1 hPa ENE 15.4 km/h 33.3 km/h 64% 0.0 mm
16:44 18.8 °C 11.9 °C 1013.1 hPa NE 16.4 km/h 33.8 km/h 64% 0.0 mm
16:49 19.1 °C 12.1 °C 1013.1 hPa ENE 15.8 km/h 30.6 km/h 63.8% 0.0 mm
16:54 19.1 °C 12 °C 1012.8 hPa NE 14.8 km/h 30.6 km/h 63.6% 0.0 mm
16:59 19 °C 12 °C 1012.8 hPa NE 14.8 km/h 27.8 km/h 63.9% 0.0 mm
17:04 19.2 °C 12.2 °C 1012.8 hPa NE 14.8 km/h 26.2 km/h 64% 0.0 mm
17:09 19.2 °C 12.2 °C 1012.6 hPa NE 14.5 km/h 31.7 km/h 63.8% 0.0 mm
17:14 18.9 °C 12 °C 1012.6 hPa NE 14 km/h 32.2 km/h 64.2% 0.0 mm
17:19 18.7 °C 12 °C 1012.7 hPa ENE 14.8 km/h 31.5 km/h 65% 0.0 mm
17:24 18.7 °C 12.1 °C 1012.7 hPa NE 16.1 km/h 32.2 km/h 65.3% 0.0 mm
17:29 18.8 °C 12.1 °C 1012.7 hPa NE 15.9 km/h 32.3 km/h 65.1% 0.0 mm
17:34 18.5 °C 12 °C 1012.7 hPa ENE 15.6 km/h 33.8 km/h 65.5% 0.0 mm
17:39 18.6 °C 12.1 °C 1012.7 hPa ENE 16.5 km/h 33.8 km/h 66.1% 0.0 mm
17:44 18.5 °C 12.1 °C 1012.7 hPa ENE 18 km/h 29.8 km/h 66.5% 0.0 mm
17:49 18.4 °C 12.1 °C 1012.7 hPa NE 17.1 km/h 30.6 km/h 66.7% 0.0 mm
17:54 18.4 °C 12 °C 1012.4 hPa ENE 15.6 km/h 30.6 km/h 66.5% 0.0 mm
17:59 18.2 °C 12.1 °C 1012.4 hPa NE 15.6 km/h 30.6 km/h 67.7% 0.0 mm
18:04 18.1 °C 11.9 °C 1012.4 hPa NE 15.6 km/h 33.5 km/h 67.1% 0.0 mm
18:09 18.1 °C 12 °C 1012.1 hPa NE 15.9 km/h 34.3 km/h 67.5% 0.0 mm
18:14 18 °C 11.8 °C 1012.1 hPa NE 16.4 km/h 33.8 km/h 66.9% 0.0 mm
18:19 17.8 °C 11.6 °C 1012.1 hPa NE 17.4 km/h 30.6 km/h 67% 0.0 mm
18:24 17.7 °C 11.6 °C 1012.0 hPa NE 19 km/h 42.6 km/h 67.6% 0.0 mm
18:29 17.6 °C 11.6 °C 1012.0 hPa NE 20.8 km/h 41.8 km/h 68.1% 0.0 mm
18:34 17.6 °C 11.7 °C 1012.1 hPa NE 23.7 km/h 37 km/h 68.5% 0.0 mm
18:39 17.7 °C 11.9 °C 1012.1 hPa NE 21.8 km/h 37 km/h 68.9% 0.0 mm
18:44 17.7 °C 11.7 °C 1012.1 hPa NE 19 km/h 29.6 km/h 68% 0.0 mm
18:49 17.5 °C 11.8 °C 1012.2 hPa ENE 18.6 km/h 29.8 km/h 69.1% 0.0 mm
18:54 17.5 °C 11.9 °C 1012.2 hPa NE 18 km/h 30.6 km/h 70% 0.0 mm
18:59 17.4 °C 11.8 °C 1012.2 hPa NE 17.1 km/h 29.8 km/h 69.7% 0.0 mm
19:04 17.4 °C 11.9 °C 1012.2 hPa NE 16.1 km/h 34.3 km/h 70.2% 0.0 mm
19:09 17.3 °C 11.8 °C 1012.2 hPa NE 17 km/h 33.8 km/h 70.5% 0.0 mm
19:14 17.1 °C 11.9 °C 1012.2 hPa NE 18.4 km/h 33.8 km/h 71.3% 0.0 mm
19:19 16.9 °C 11.8 °C 1012.2 hPa NE 18.9 km/h 31.7 km/h 71.6% 0.0 mm
19:24 16.9 °C 11.8 °C 1012.2 hPa NE 19.8 km/h 32.2 km/h 71.9% 0.0 mm
19:29 16.9 °C 11.9 °C 1012.2 hPa NE 19.1 km/h 27.8 km/h 72.5% 0.0 mm
19:34 16.8 °C 11.9 °C 1012.2 hPa NE 18 km/h 37 km/h 73% 0.0 mm
19:39 16.7 °C 11.9 °C 1012.1 hPa NE 18 km/h 37 km/h 73.2% 0.0 mm
19:44 16.6 °C 12 °C 1012.1 hPa NE 18 km/h 28.2 km/h 74% 0.0 mm
19:49 16.5 °C 11.9 °C 1012.1 hPa NE 18.2 km/h 31.5 km/h 74% 0.0 mm
19:54 16.4 °C 11.9 °C 1012.1 hPa NE 18.4 km/h 32.2 km/h 74.5% 0.0 mm
19:59 16.4 °C 11.9 °C 1012.1 hPa NE 17.8 km/h 29.6 km/h 75% 0.0 mm
20:04 16.3 °C 11.9 °C 1012.1 hPa NE 17.2 km/h 29.6 km/h 75.1% 0.0 mm
20:09 16.3 °C 12.1 °C 1011.8 hPa NE 17.7 km/h 29 km/h 76% 0.0 mm
20:14 16.3 °C 12.1 °C 1011.8 hPa NE 18.4 km/h 27.4 km/h 76% 0.0 mm
20:19 16.3 °C 12.2 °C 1011.9 hPa NE 17.2 km/h 27.8 km/h 76.6% 0.0 mm
20:24 16.2 °C 12.2 °C 1011.9 hPa NE 15.6 km/h 31.5 km/h 77% 0.0 mm
20:29 16.2 °C 12.1 °C 1011.9 hPa NE 16.6 km/h 32.2 km/h 77% 0.0 mm
20:34 16.1 °C 12.2 °C 1011.9 hPa NE 18 km/h 32.2 km/h 77.4% 0.0 mm
20:39 16 °C 12.2 °C 1011.7 hPa NE 17.7 km/h 29 km/h 78% 0.0 mm
20:44 15.9 °C 12.2 °C 1011.7 hPa NE 17.2 km/h 31.7 km/h 78.5% 0.0 mm
20:49 15.9 °C 12.3 °C 1011.7 hPa NE 17.2 km/h 37 km/h 79% 0.0 mm
20:54 15.8 °C 12.3 °C 1011.7 hPa NE 17.2 km/h 37 km/h 79.7% 0.0 mm
20:59 15.8 °C 12.3 °C 1011.7 hPa NE 16.8 km/h 27.4 km/h 80% 0.0 mm
21:04 15.8 °C 12.3 °C 1011.8 hPa NE 16.4 km/h 22.5 km/h 80% 0.0 mm
21:09 15.8 °C 12.3 °C 1011.8 hPa NE 15.1 km/h 25.1 km/h 80% 0.0 mm
21:14 15.8 °C 12.5 °C 1011.8 hPa NE 13 km/h 25.9 km/h 80.7% 0.0 mm
21:19 15.8 °C 12.6 °C 1011.9 hPa NE 13.7 km/h 25.7 km/h 81% 0.0 mm
21:24 15.8 °C 12.6 °C 1011.9 hPa ENE 14.8 km/h 22.5 km/h 81% 0.0 mm
21:29 15.8 °C 12.6 °C 1011.9 hPa NE 12.4 km/h 19.3 km/h 81% 0.0 mm
21:34 15.8 °C 12.6 °C 1012.5 hPa NE 8.7 km/h 16.1 km/h 81% 0.0 mm
21:39 15.8 °C 12.5 °C 1012.5 hPa NE 9.2 km/h 18.5 km/h 81% 0.0 mm
21:44 15.7 °C 12.4 °C 1012.5 hPa NE 10 km/h 19.3 km/h 81% 0.0 mm
21:49 15.7 °C 12.4 °C 1012.5 hPa NE 10.4 km/h 24.5 km/h 81% 0.0 mm
21:54 15.7 °C 12.4 °C 1011.9 hPa NE 11.1 km/h 24.1 km/h 81% 0.0 mm
21:59 15.6 °C 12.3 °C 1011.9 hPa NNE 10.3 km/h 16.1 km/h 81% 0.0 mm
22:04 15.6 °C 12.3 °C 1012.1 hPa NNE 9.5 km/h 14.5 km/h 81% 0.0 mm
22:09 15.6 °C 12.4 °C 1012.1 hPa NNE 8.3 km/h 11.3 km/h 81.4% 0.0 mm
22:14 15.6 °C 12.5 °C 1012.1 hPa NNE 6.5 km/h 9.7 km/h 82% 0.0 mm
22:19 15.6 °C 12.4 °C 1012.6 hPa NE 5.2 km/h 8.4 km/h 81.5% 0.0 mm
22:24 15.5 °C 12.3 °C 1012.6 hPa NE 3.2 km/h 10 km/h 81% 0.0 mm
22:29 15.5 °C 12.3 °C 1012.6 hPa NE 4.2 km/h 9.7 km/h 81% 0.0 mm
22:34 15.5 °C 12.3 °C 1012.6 hPa NE 5.8 km/h 9.7 km/h 81% 0.0 mm
22:39 15.5 °C 12.3 °C 1012.5 hPa NE 5.5 km/h 8 km/h 81% 0.0 mm
22:44 15.5 °C 12.3 °C 1012.5 hPa North 5 km/h 8 km/h 81% 0.0 mm
22:49 15.6 °C 12.3 °C 1012.6 hPa NNE 4.2 km/h 6.4 km/h 81% 0.0 mm
22:54 15.5 °C 12.3 °C 1012.6 hPa NE 2.9 km/h 7.4 km/h 81% 0.0 mm
22:59 15.5 °C 12.3 °C 1012.6 hPa NE 2.9 km/h 8 km/h 81% 0.0 mm
23:04 15.5 °C 12.3 °C 1012.8 hPa NE 2.9 km/h 7.6 km/h 81% 0.0 mm
23:09 15.6 °C 12.3 °C 1012.8 hPa NE 3 km/h 9.5 km/h 80.9% 0.0 mm
23:14 15.5 °C 12.1 °C 1012.8 hPa NNE 3.2 km/h 9.7 km/h 80.2% 0.0 mm
23:19 15.5 °C 12.3 °C 1012.9 hPa NNO 3.8 km/h 9.7 km/h 81% 0.0 mm
23:24 15.4 °C 12.2 °C 1012.9 hPa Oeste 4.7 km/h 11.1 km/h 81% 0.0 mm
23:29 15.4 °C 12.2 °C 1012.9 hPa Oeste 5.3 km/h 11.3 km/h 81% 0.0 mm
23:34 15.3 °C 12.1 °C 1013.5 hPa OSO 6.5 km/h 9.7 km/h 81% 0.0 mm
23:39 15.4 °C 12.2 °C 1013.5 hPa Oeste 6.5 km/h 13 km/h 81% 0.0 mm
23:44 15.4 °C 12 °C 1013.5 hPa NO 6.5 km/h 13 km/h 80.2% 0.0 mm
23:49 15.4 °C 11.9 °C 1013.9 hPa Oeste 6.9 km/h 13 km/h 80% 0.0 mm
23:54 15.4 °C 11.9 °C 1013.9 hPa Oeste 7.6 km/h 13 km/h 80% 0.0 mm
23:59 15.4 °C 11.8 °C 1013.9 hPa Oeste 8.1 km/h 13.7 km/h 79% 0.0 mm
Murcia-Puente Tocinos, España
Compliments of Weather Underground - 3 mb

La estación de MeteoMurcia.com, publica sus datos en los siguientes proyectos:

Weather Underground PWS IMURCIAP2 Meteoclimatic www.awekas.at

W3Counter
Web Analytics